createdAt,value
2018-11-23T00:00:54.387Z,88.60
2018-11-23T00:03:23.633Z,89.41
2018-11-23T00:05:51.860Z,89.88
2018-11-23T00:08:20.044Z,89.54
2018-11-23T00:10:49.578Z,89.26
2018-11-23T00:13:18.144Z,89.13
2018-11-23T00:15:46.423Z,89.39
2018-11-23T00:18:14.652Z,89.28
2018-11-23T00:20:43.451Z,89.26
2018-11-23T00:23:11.792Z,88.61
2018-11-23T00:25:40.595Z,88.44
2018-11-23T00:28:09.451Z,88.61
2018-11-23T00:30:38.966Z,88.23
2018-11-23T00:33:07.312Z,88.46
2018-11-23T00:35:36.257Z,88.67
2018-11-23T00:38:05.593Z,89.03
2018-11-23T00:40:35.888Z,88.67
2018-11-23T00:43:04.355Z,88.83
2018-11-23T00:45:35.666Z,87.64
2018-11-23T00:48:03.467Z,87.25
2018-11-23T00:50:32.457Z,87.31
2018-11-23T00:53:01.998Z,86.70
2018-11-23T00:55:31.068Z,86.68
2018-11-23T00:57:59.359Z,87.32
2018-11-23T01:00:32.199Z,87.09
2018-11-23T01:03:01.385Z,87.63
2018-11-23T01:05:29.839Z,87.53
2018-11-23T01:07:58.319Z,88.50
2018-11-23T01:10:27.929Z,89.39
2018-11-23T01:12:56.941Z,89.12
2018-11-23T01:15:25.216Z,88.76
2018-11-23T01:17:53.965Z,89.07
2018-11-23T01:20:23.495Z,89.19
2018-11-23T01:22:52.116Z,88.91
2018-11-23T01:25:21.656Z,89.22
2018-11-23T01:27:51.049Z,89.02
2018-11-23T01:30:22.276Z,88.99
2018-11-23T01:32:50.533Z,89.24
2018-11-23T01:35:18.741Z,88.00
2018-11-23T01:37:46.922Z,87.85
2018-11-23T01:40:16.748Z,88.27
2018-11-23T01:42:45.283Z,87.99
2018-11-23T01:45:13.976Z,87.97
2018-11-23T01:47:42.154Z,88.20
2018-11-23T01:50:13.616Z,89.61
2018-11-23T01:52:42.081Z,90.03
2018-11-23T01:55:11.368Z,89.85
2018-11-23T01:57:40.368Z,90.05
2018-11-23T02:00:13.347Z,89.78
2018-11-23T02:02:41.628Z,89.12
2018-11-23T02:05:10.244Z,88.53
2018-11-23T02:07:39.004Z,88.55
2018-11-23T02:10:08.026Z,88.00
2018-11-23T02:12:36.484Z,87.72
2018-11-23T02:15:05.338Z,88.68
2018-11-23T02:17:33.532Z,88.38
2018-11-23T02:20:01.737Z,88.13
2018-11-23T02:22:29.927Z,88.52
2018-11-23T02:24:58.189Z,88.10
2018-11-23T02:27:26.381Z,88.20
2018-11-23T02:29:54.591Z,88.73
2018-11-23T02:32:22.809Z,88.31
2018-11-23T02:34:51.000Z,87.84
2018-11-23T02:37:19.192Z,88.35
2018-11-23T02:39:47.421Z,87.48
2018-11-23T02:42:15.639Z,87.00
2018-11-23T02:44:43.828Z,86.79
2018-11-23T02:47:12.006Z,86.95
2018-11-23T02:49:40.213Z,88.26
2018-11-23T02:52:08.413Z,89.02
2018-11-23T02:54:36.635Z,89.60
2018-11-23T02:57:05.473Z,89.90
2018-11-23T02:59:33.698Z,89.61
2018-11-23T03:02:01.943Z,90.36
2018-11-23T03:04:30.191Z,89.76
2018-11-23T03:06:58.349Z,90.15
2018-11-23T03:09:26.532Z,89.97
2018-11-23T03:11:54.725Z,90.28
2018-11-23T03:14:22.949Z,90.42
2018-11-23T03:16:51.139Z,90.15
2018-11-23T03:19:19.336Z,91.07
2018-11-23T03:21:47.588Z,91.07
2018-11-23T03:24:15.768Z,91.61
2018-11-23T03:26:44.044Z,91.61
2018-11-23T03:29:12.232Z,91.32
2018-11-23T03:31:40.437Z,91.39
2018-11-23T03:34:08.666Z,90.88
2018-11-23T03:36:36.932Z,91.66
2018-11-23T03:39:07.929Z,91.02
2018-11-23T03:41:36.133Z,91.08
2018-11-23T03:44:05.132Z,90.43
2018-11-23T03:46:34.270Z,89.08
2018-11-23T03:49:03.852Z,88.93
2018-11-23T03:51:32.102Z,88.85
2018-11-23T03:54:00.435Z,89.77
2018-11-23T03:56:28.720Z,89.11
2018-11-23T03:58:57.353Z,89.93
2018-11-23T04:01:25.660Z,91.04
2018-11-23T04:03:53.911Z,91.30
2018-11-23T04:06:22.092Z,91.22
2018-11-23T04:08:50.587Z,91.27
2018-11-23T04:11:18.857Z,91.32
2018-11-23T04:13:49.015Z,91.26
2018-11-23T04:16:17.253Z,91.86
2018-11-23T04:18:47.578Z,91.80
2018-11-23T04:21:18.775Z,91.46
2018-11-23T04:23:48.688Z,91.13
2018-11-23T04:26:24.629Z,90.39
2018-11-23T04:28:48.445Z,89.30
2018-11-23T04:31:16.970Z,89.58
2018-11-23T04:33:46.803Z,89.04
2018-11-23T04:36:15.108Z,89.06
2018-11-23T04:38:43.348Z,88.09
2018-11-23T04:41:11.520Z,88.12
2018-11-23T04:43:39.700Z,88.59
2018-11-23T04:46:07.908Z,88.20
2018-11-23T04:48:36.203Z,89.28
2018-11-23T04:51:05.544Z,90.00
2018-11-23T04:53:35.064Z,90.22
2018-11-23T04:56:05.031Z,89.70
2018-11-23T04:58:34.723Z,89.25
2018-11-23T05:01:05.194Z,90.38
2018-11-23T05:03:34.973Z,90.96
2018-11-23T05:06:04.860Z,90.48
2018-11-23T05:08:34.749Z,90.67
2018-11-23T05:11:04.744Z,90.89
2018-11-23T05:13:32.942Z,90.54
2018-11-23T05:16:01.165Z,90.05
2018-11-23T05:18:29.357Z,90.29
2018-11-23T05:20:57.896Z,89.98
2018-11-23T05:23:26.183Z,90.19
2018-11-23T05:25:54.377Z,90.46
2018-11-23T05:28:22.563Z,90.54
2018-11-23T05:30:50.752Z,90.18
2018-11-23T05:33:19.268Z,90.08
2018-11-23T05:35:47.456Z,89.96
2018-11-23T05:38:15.666Z,89.89
2018-11-23T05:40:43.915Z,88.69
2018-11-23T05:43:12.088Z,88.61
2018-11-23T05:45:40.272Z,87.39
2018-11-23T05:48:08.494Z,87.46
2018-11-23T05:50:36.705Z,87.83
2018-11-23T05:53:04.904Z,87.79
2018-11-23T05:55:33.099Z,87.95
2018-11-23T05:58:01.328Z,88.40
2018-11-23T06:00:30.825Z,88.48
2018-11-23T06:02:59.210Z,89.07
2018-11-23T06:05:27.432Z,89.02
2018-11-23T06:07:55.633Z,89.39
2018-11-23T06:10:24.125Z,89.84
2018-11-23T06:12:52.337Z,89.27
2018-11-23T06:15:22.027Z,89.14
2018-11-23T06:17:50.592Z,88.78
2018-11-23T06:20:22.464Z,88.13
2018-11-23T06:22:51.525Z,89.32
2018-11-23T06:25:45.335Z,89.43
2018-11-23T06:28:13.521Z,89.61
2018-11-23T06:30:41.716Z,89.25
2018-11-23T06:33:21.276Z,88.94
2018-11-23T06:35:49.457Z,89.20
2018-11-23T06:38:17.627Z,89.00
2018-11-23T06:40:45.816Z,89.39
2018-11-23T06:43:13.998Z,89.72
2018-11-23T06:45:43.556Z,89.99
2018-11-23T06:48:12.079Z,89.95
2018-11-23T06:50:40.367Z,89.98
2018-11-23T06:53:08.847Z,90.69
2018-11-23T06:55:37.034Z,90.46
2018-11-23T06:58:05.519Z,88.78
2018-11-23T07:00:33.714Z,88.75
2018-11-23T07:03:02.039Z,88.53
2018-11-23T07:05:30.204Z,88.36
2018-11-23T07:07:59.309Z,88.46
2018-11-23T07:10:27.476Z,88.55
2018-11-23T07:12:55.702Z,89.92
2018-11-23T07:15:23.968Z,90.33
2018-11-23T07:17:52.241Z,90.92
2018-11-23T07:20:20.448Z,91.75
2018-11-23T07:22:49.393Z,92.37
2018-11-23T07:25:17.665Z,92.25
2018-11-23T07:27:45.841Z,91.96
2018-11-23T07:30:17.964Z,89.62
2018-11-23T07:32:46.375Z,88.76
2018-11-23T07:35:15.253Z,88.54
2018-11-23T07:37:43.439Z,88.52
2018-11-23T07:40:24.755Z,86.83
2018-11-23T07:42:54.012Z,85.71
2018-11-23T07:45:22.178Z,86.69
2018-11-23T07:47:50.362Z,87.25
2018-11-23T07:50:19.337Z,88.46
2018-11-23T07:52:47.557Z,89.10
2018-11-23T07:55:15.747Z,88.95
2018-11-23T07:57:43.961Z,89.99
2018-11-23T08:00:14.885Z,89.97
2018-11-23T08:02:43.602Z,89.54
2018-11-23T08:05:14.595Z,88.53
2018-11-23T08:07:42.789Z,88.88
2018-11-23T08:10:11.323Z,87.24
2018-11-23T08:12:40.995Z,87.70
2018-11-23T08:15:15.325Z,87.63
2018-11-23T08:17:43.547Z,86.10
2018-11-23T08:20:13.710Z,86.56
2018-11-23T08:22:42.084Z,87.85
2018-11-23T08:25:11.513Z,85.91
2018-11-23T08:27:40.277Z,82.33
2018-11-23T08:30:14.040Z,80.78
2018-11-23T08:32:42.231Z,80.43
2018-11-23T08:35:10.630Z,78.52
2018-11-23T08:37:40.266Z,79.46
2018-11-23T08:40:18.241Z,79.92
2018-11-23T08:42:47.375Z,80.18
2018-11-23T08:45:18.887Z,79.75
2018-11-23T08:47:47.167Z,80.17
2018-11-23T08:50:17.965Z,80.71
2018-11-23T08:52:46.196Z,80.61
2018-11-23T08:55:15.168Z,84.20
2018-11-23T08:57:43.600Z,85.34
2018-11-23T09:00:19.793Z,85.58
2018-11-23T09:02:49.219Z,85.10
2018-11-23T09:05:18.100Z,85.77
2018-11-23T09:07:47.288Z,85.98
2018-11-23T09:10:17.556Z,84.73
2018-11-23T09:12:47.671Z,82.31
2018-11-23T09:15:16.217Z,81.44
2018-11-23T09:17:45.716Z,81.47
2018-11-23T09:20:14.612Z,80.06
2018-11-23T09:22:42.875Z,79.98
2018-11-23T09:25:14.580Z,79.68
2018-11-23T09:27:42.761Z,78.98
2018-11-23T09:30:14.701Z,79.83
2018-11-23T09:32:43.266Z,79.72
2018-11-23T09:35:11.440Z,79.47
2018-11-23T09:37:40.457Z,79.21
2018-11-23T09:40:10.871Z,79.76
2018-11-23T09:42:39.546Z,80.70
2018-11-23T09:45:09.657Z,80.41
2018-11-23T09:47:37.938Z,79.53
2018-11-23T09:50:08.577Z,78.07
2018-11-23T09:52:38.384Z,78.04
2018-11-23T09:55:07.069Z,78.24
2018-11-23T09:57:35.231Z,78.14
2018-11-23T10:00:03.468Z,80.06
2018-11-23T10:02:31.670Z,80.52
2018-11-23T10:04:59.862Z,81.63
2018-11-23T10:07:28.118Z,82.56
2018-11-23T10:09:56.282Z,82.21
2018-11-23T10:12:24.461Z,79.87
2018-11-23T10:14:52.788Z,77.60
2018-11-23T10:17:20.967Z,76.16
2018-11-23T10:19:49.168Z,75.60
2018-11-23T10:22:17.368Z,75.71
2018-11-23T10:24:45.564Z,75.78
2018-11-23T10:27:13.777Z,76.26
2018-11-23T10:29:42.013Z,76.46
2018-11-23T10:32:10.210Z,76.22
2018-11-23T10:34:38.378Z,76.93
2018-11-23T10:37:06.610Z,77.32
2018-11-23T10:39:34.797Z,77.26
2018-11-23T10:42:02.961Z,73.58
2018-11-23T10:44:31.182Z,73.18
2018-11-23T10:46:59.371Z,74.19
2018-11-23T10:49:27.560Z,75.75
2018-11-23T10:51:55.757Z,76.19
2018-11-23T10:54:23.936Z,75.16
2018-11-23T10:56:52.108Z,73.04
2018-11-23T10:59:20.426Z,71.22
2018-11-23T11:01:53.978Z,70.09
2018-11-23T11:04:28.304Z,66.31
2018-11-23T11:07:00.771Z,64.44
2018-11-23T11:09:29.076Z,65.07
2018-11-23T11:11:57.245Z,67.07
2018-11-23T11:14:25.417Z,68.19
2018-11-23T11:16:53.626Z,65.79
2018-11-23T11:19:21.796Z,64.53
2018-11-23T11:21:50.025Z,63.97
2018-11-23T11:24:18.249Z,63.88
2018-11-23T11:26:46.440Z,63.74
2018-11-23T11:29:14.642Z,62.63
2018-11-23T11:31:43.111Z,61.34
2018-11-23T11:34:11.297Z,60.69
2018-11-23T11:36:39.444Z,61.22
2018-11-23T11:39:10.478Z,60.60
2018-11-23T11:41:38.706Z,60.13
2018-11-23T11:44:06.906Z,60.66
2018-11-23T11:46:35.952Z,60.62
2018-11-23T11:49:04.245Z,59.22
2018-11-23T11:51:32.399Z,59.70
2018-11-23T11:54:00.623Z,59.85
2018-11-23T11:56:28.805Z,60.49
2018-11-23T11:58:56.983Z,60.47
2018-11-23T12:01:26.336Z,61.11
2018-11-23T12:03:55.035Z,60.61
2018-11-23T12:06:23.244Z,60.18
2018-11-23T12:08:52.902Z,59.40
2018-11-23T12:11:21.142Z,62.04
2018-11-23T12:13:49.365Z,61.52
2018-11-23T12:16:17.619Z,63.38
2018-11-23T12:18:45.819Z,64.48
2018-11-23T12:21:14.025Z,62.98
2018-11-23T12:23:42.189Z,61.23
2018-11-23T12:26:10.357Z,61.42
2018-11-23T12:28:38.560Z,62.06
2018-11-23T12:31:06.776Z,62.48
2018-11-23T12:33:34.947Z,62.97
2018-11-23T12:36:03.162Z,62.67
2018-11-23T12:38:31.345Z,63.66
2018-11-23T12:40:59.521Z,63.88
2018-11-23T12:43:27.704Z,64.09
2018-11-23T12:45:55.905Z,63.98
2018-11-23T12:48:24.091Z,64.08
2018-11-23T12:50:52.286Z,63.25
2018-11-23T12:53:20.464Z,63.87
2018-11-23T12:55:48.629Z,64.27
2018-11-23T12:58:16.848Z,64.05
2018-11-23T13:00:45.016Z,64.95
2018-11-23T13:03:13.207Z,64.80
2018-11-23T13:05:41.396Z,64.82
2018-11-23T13:08:09.575Z,64.43
2018-11-23T13:10:37.959Z,64.96
2018-11-23T13:13:06.134Z,65.40
2018-11-23T13:15:34.317Z,66.19
2018-11-23T13:18:03.288Z,66.12
2018-11-23T13:20:31.448Z,66.59
2018-11-23T13:22:59.645Z,66.88
2018-11-23T13:25:30.046Z,66.22
2018-11-23T13:27:58.335Z,67.38
2018-11-23T13:30:29.993Z,68.28
2018-11-23T13:32:58.226Z,68.79
2018-11-23T13:35:26.416Z,68.85
2018-11-23T13:37:54.632Z,68.71
2018-11-23T13:40:24.149Z,68.30
2018-11-23T13:42:53.069Z,68.50
2018-11-23T13:45:22.520Z,68.37
2018-11-23T13:47:50.760Z,68.97
2018-11-23T13:50:20.186Z,69.03
2018-11-23T13:52:49.175Z,69.51
2018-11-23T13:55:17.381Z,70.14
2018-11-23T13:57:45.572Z,70.49
2018-11-23T14:00:16.156Z,70.47
2018-11-23T14:02:44.877Z,71.36
2018-11-23T14:05:15.367Z,70.31
2018-11-23T14:07:44.470Z,70.44
2018-11-23T14:10:14.603Z,69.91
2018-11-23T14:12:43.682Z,70.03
2018-11-23T14:15:14.359Z,69.96
2018-11-23T14:17:43.783Z,70.05
2018-11-23T14:20:13.118Z,70.54
2018-11-23T14:22:41.277Z,71.42
2018-11-23T14:25:11.441Z,70.90
2018-11-23T14:27:39.708Z,71.22
2018-11-23T14:30:12.272Z,70.64
2018-11-23T14:32:40.745Z,71.34
2018-11-23T14:35:10.867Z,70.94
2018-11-23T14:37:39.597Z,71.40
2018-11-23T14:40:08.847Z,72.27
2018-11-23T14:42:37.012Z,72.25
2018-11-23T14:45:08.040Z,71.88
2018-11-23T14:47:36.212Z,72.55
2018-11-23T14:50:04.748Z,75.55
2018-11-23T14:52:33.004Z,75.48
2018-11-23T14:55:01.205Z,74.85
2018-11-23T14:57:29.389Z,76.30
2018-11-23T14:59:57.573Z,75.77
2018-11-23T15:02:25.794Z,75.77
2018-11-23T15:04:53.967Z,75.62
2018-11-23T15:07:22.140Z,76.54
2018-11-23T15:09:50.339Z,77.65
2018-11-23T15:12:18.521Z,77.47
2018-11-23T15:14:46.808Z,77.02
2018-11-23T15:17:15.032Z,77.83
2018-11-23T15:19:43.201Z,77.46
2018-11-23T15:22:11.372Z,78.47
2018-11-23T15:24:39.550Z,78.05
2018-11-23T15:27:07.720Z,78.18
2018-11-23T15:29:36.702Z,77.61
2018-11-23T15:32:04.892Z,77.58
2018-11-23T15:34:33.067Z,77.25
2018-11-23T15:37:01.629Z,78.14
2018-11-23T15:39:29.822Z,77.51
2018-11-23T15:41:57.995Z,79.13
2018-11-23T15:44:26.196Z,79.72
2018-11-23T15:46:54.383Z,78.57
2018-11-23T15:49:22.592Z,77.78
2018-11-23T15:51:50.795Z,77.76
2018-11-23T15:54:18.977Z,77.14
2018-11-23T15:56:47.169Z,76.53
2018-11-23T15:59:15.361Z,76.67
2018-11-23T16:01:43.780Z,77.52
2018-11-23T16:04:13.069Z,78.34
2018-11-23T16:06:41.236Z,79.41
2018-11-23T16:09:11.939Z,77.92
2018-11-23T16:11:40.170Z,78.52
2018-11-23T16:14:08.370Z,78.35
2018-11-23T16:16:36.712Z,80.55
2018-11-23T16:19:04.921Z,81.05
2018-11-23T16:21:33.107Z,81.40
2018-11-23T16:24:01.305Z,83.02
2018-11-23T16:26:29.505Z,83.29
2018-11-23T16:28:57.688Z,81.55
2018-11-23T16:31:25.897Z,79.84
2018-11-23T16:33:54.110Z,80.35
2018-11-23T16:36:22.291Z,81.72
2018-11-23T16:38:50.496Z,81.77
2018-11-23T16:41:18.683Z,81.04
2018-11-23T16:43:46.984Z,79.58
2018-11-23T16:46:16.017Z,78.88
2018-11-23T16:48:44.204Z,79.72
2018-11-23T16:51:12.496Z,80.61
2018-11-23T16:53:41.553Z,80.12
2018-11-23T16:56:09.732Z,79.95
2018-11-23T16:58:37.976Z,80.60
2018-11-23T17:01:08.034Z,80.76
2018-11-23T17:03:36.313Z,81.58
2018-11-23T17:06:04.625Z,81.47
2018-11-23T17:08:39.444Z,82.51
2018-11-23T17:11:01.017Z,83.43
2018-11-23T17:13:29.359Z,82.83
2018-11-23T17:15:57.688Z,83.24
2018-11-23T17:18:25.868Z,83.95
2018-11-23T17:20:54.093Z,82.78
2018-11-23T17:23:22.292Z,81.46
2018-11-23T17:25:50.486Z,83.01
2018-11-23T17:28:18.678Z,83.54
2018-11-23T17:30:46.950Z,84.07
2018-11-23T17:33:15.255Z,84.62
2018-11-23T17:35:43.511Z,84.45
2018-11-23T17:38:11.696Z,85.67
2018-11-23T17:40:40.844Z,85.67
2018-11-23T17:43:09.462Z,86.74
2018-11-23T17:45:38.249Z,87.20
2018-11-23T17:48:06.839Z,86.52
2018-11-23T17:50:36.243Z,85.76
2018-11-23T17:53:04.735Z,84.75
2018-11-23T17:55:32.964Z,83.86
2018-11-23T17:58:01.884Z,83.12
2018-11-23T18:00:38.844Z,83.25
2018-11-23T18:03:01.485Z,82.17
2018-11-23T18:05:30.618Z,83.61
2018-11-23T18:07:59.156Z,82.56
2018-11-23T18:10:28.763Z,83.44
2018-11-23T18:12:58.467Z,84.08
2018-11-23T18:15:27.878Z,83.46
2018-11-23T18:17:58.423Z,83.48
2018-11-23T18:20:27.519Z,84.33
2018-11-23T18:23:01.234Z,85.60
2018-11-23T18:25:32.673Z,85.29
2018-11-23T18:28:02.163Z,87.77
2018-11-23T18:30:34.719Z,86.87
2018-11-23T18:33:05.576Z,86.82
2018-11-23T18:35:34.036Z,86.87
2018-11-23T18:38:02.255Z,86.15
2018-11-23T18:40:36.975Z,85.33
2018-11-23T18:42:58.651Z,83.83
2018-11-23T18:45:26.838Z,82.90
2018-11-23T18:47:55.028Z,83.41
2018-11-23T18:50:23.222Z,84.48
2018-11-23T18:52:51.416Z,85.31
2018-11-23T18:55:19.636Z,85.25
2018-11-23T18:57:47.870Z,84.20
2018-11-23T19:00:18.152Z,84.02
2018-11-23T19:02:49.082Z,83.98
2018-11-23T19:05:19.327Z,84.27
2018-11-23T19:07:48.550Z,85.73
2018-11-23T19:10:18.249Z,86.28
2018-11-23T19:12:48.042Z,86.30
2018-11-23T19:15:25.302Z,85.60
2018-11-23T19:17:48.309Z,86.00
2018-11-23T19:20:21.063Z,86.69
2018-11-23T19:22:52.232Z,88.98
2018-11-23T19:25:20.420Z,86.58
2018-11-23T19:27:50.172Z,85.60
2018-11-23T19:30:23.524Z,85.35
2018-11-23T19:32:50.309Z,85.34
2018-11-23T19:35:18.542Z,84.62
2018-11-23T19:37:48.308Z,83.10
2018-11-23T19:40:19.481Z,83.17
2018-11-23T19:42:50.521Z,83.75
2018-11-23T19:45:22.085Z,83.30
2018-11-23T19:47:51.835Z,86.63
2018-11-23T19:50:21.623Z,89.34
2018-11-23T19:52:51.539Z,90.52
2018-11-23T19:55:19.747Z,90.18
2018-11-23T19:57:47.935Z,89.98
2018-11-23T20:00:18.436Z,89.15
2018-11-23T20:02:46.631Z,87.84
2018-11-23T20:05:14.805Z,87.01
2018-11-23T20:07:43.319Z,86.92
2018-11-23T20:10:13.897Z,87.65
2018-11-23T20:12:42.289Z,87.15
2018-11-23T20:15:14.907Z,89.42
2018-11-23T20:17:44.033Z,90.49
2018-11-23T20:20:13.582Z,91.65
2018-11-23T20:22:41.801Z,91.29
2018-11-23T20:25:13.573Z,89.07
2018-11-23T20:27:41.960Z,87.59
2018-11-23T20:30:12.409Z,86.86
2018-11-23T20:32:40.629Z,86.80
2018-11-23T20:35:11.261Z,87.18
2018-11-23T20:37:39.479Z,87.40
2018-11-23T20:40:10.748Z,87.83
2018-11-23T20:42:39.020Z,88.22
2018-11-23T20:45:09.854Z,87.96
2018-11-23T20:47:38.055Z,87.23
2018-11-23T20:50:10.518Z,86.32
2018-11-23T20:52:39.064Z,85.91
2018-11-23T20:55:10.860Z,86.49
2018-11-23T20:57:39.189Z,86.83
2018-11-23T21:00:13.759Z,85.53
2018-11-23T21:02:42.047Z,85.22
2018-11-23T21:05:11.435Z,86.11
2018-11-23T21:07:39.724Z,87.60
2018-11-23T21:10:19.629Z,85.93
2018-11-23T21:12:40.220Z,87.51
2018-11-23T21:15:18.673Z,87.16
2018-11-23T21:17:46.888Z,87.72
2018-11-23T21:20:15.095Z,87.27
2018-11-23T21:22:43.382Z,88.36
2018-11-23T21:25:11.676Z,88.82
2018-11-23T21:27:40.456Z,87.76
2018-11-23T21:30:12.408Z,87.21
2018-11-23T21:32:40.712Z,86.01
2018-11-23T21:35:11.020Z,85.33
2018-11-23T21:37:39.237Z,85.30
2018-11-23T21:40:09.000Z,85.65
2018-11-23T21:42:37.192Z,85.59
2018-11-23T21:45:07.347Z,86.60
2018-11-23T21:47:35.570Z,85.97
2018-11-23T21:50:03.805Z,87.19
2018-11-23T21:52:31.997Z,87.34
2018-11-23T21:55:00.243Z,87.14
2018-11-23T21:57:28.456Z,87.16
2018-11-23T21:59:56.660Z,87.40
2018-11-23T22:02:24.876Z,87.79
2018-11-23T22:05:05.143Z,86.56
2018-11-23T22:07:34.696Z,87.47
2018-11-23T22:10:03.156Z,87.03
2018-11-23T22:12:31.344Z,87.33
2018-11-23T22:14:59.508Z,88.13
2018-11-23T22:17:27.708Z,87.14
2018-11-23T22:19:55.902Z,87.25
2018-11-23T22:22:24.123Z,87.98
2018-11-23T22:24:52.358Z,88.78
2018-11-23T22:27:20.563Z,87.69
2018-11-23T22:29:48.782Z,86.94
2018-11-23T22:32:16.988Z,87.02
2018-11-23T22:34:45.176Z,86.63
2018-11-23T22:37:13.539Z,86.69
2018-11-23T22:39:41.724Z,86.41
2018-11-23T22:42:09.916Z,87.59
2018-11-23T22:44:38.588Z,87.28
2018-11-23T22:47:06.764Z,86.14
2018-11-23T22:49:36.131Z,85.77
2018-11-23T22:52:06.667Z,86.94
2018-11-23T22:54:37.690Z,87.77
2018-11-23T22:57:11.768Z,86.24
2018-11-23T22:59:37.756Z,87.29
2018-11-23T23:02:06.958Z,86.93
2018-11-23T23:04:36.286Z,86.32
2018-11-23T23:07:05.856Z,86.57
2018-11-23T23:09:36.872Z,84.90
2018-11-23T23:12:06.522Z,85.46
2018-11-23T23:14:37.705Z,86.60
2018-11-23T23:17:08.142Z,86.50
2018-11-23T23:19:38.163Z,86.39
2018-11-23T23:22:06.396Z,86.44
2018-11-23T23:24:34.616Z,87.10
2018-11-23T23:27:02.799Z,87.49
2018-11-23T23:29:30.971Z,87.21
2018-11-23T23:32:00.266Z,87.97
2018-11-23T23:34:29.516Z,86.30
2018-11-23T23:36:59.248Z,85.91
2018-11-23T23:39:29.354Z,85.74
2018-11-23T23:41:57.577Z,85.75
2018-11-23T23:44:25.787Z,84.98
2018-11-23T23:46:53.971Z,85.01
2018-11-23T23:49:22.158Z,84.86
2018-11-23T23:51:50.402Z,85.15
2018-11-23T23:54:18.592Z,85.71
2018-11-23T23:56:48.856Z,88.05
2018-11-23T23:59:18.309Z,89.30
